Ivato International Airport

Airport
ICAO code: 
FMMI
IATA Code: 
TNR
Summary
ICAO Region: 
AFI
Territory: 
Location: 
Antananarivo, Antananarivo Province
Serving: 
Antananarivo
Elevation: 
4198 ft
Coordinates: 
Aerial View: 
18° 47' 47.004" S, 47° 28' 33.996" E
Metar
Observation
FMMI 170000Z 06004KT 9999 FEW017 BKN020 19/18 Q1014 NOSIG
Station
Antananarivo / Ivato
Date/Time
2022-01-17 00:00:00
Wind direction
60°
Wind speed
04 kts
Lowest cloud amount
few clouds
Temperature
19°C
Dew point
18°C
Humidity
93%
QNH
1014 hPa
Weather condition
n/a

International airport 16 km north of Antananarivo, the capital city of Madagascar.

Climatology

Sub-tropical highland climate (Köppen climate classification Cwb)

Runways

Designator Length Width Surface Rops
11/29 3100 45 ASP Yes/Yes
Airport map: 
Aerial View: 

SKYbrary Partners:

Safety knowledge contributed by: